Weather at Yen Bai Air Base

Public forecast

Using degrees Celsius for public forecast. Weather courtesy of forecast.io.

Closest aviation weather report (METAR) to Yen Bai Air Base

Closest report is Noi Bai International Airport, 61.5 nm (113.9 km) ESE.

2024/07/21 10:30 (retrieved 25 minutes ago)

VVNB 211030Z 05006KT 340V090 9999 FEW030CB FEW040 34/27 Q1002 TEMPO 4000 SHRA

Closest aviation forecast (TAF) to Yen Bai Air Base

Closest forecast is Noi Bai International Airport, 61.5 nm (113.9 km) ESE.

2024/07/21 06:37 (retrieved 4 hours ago)

TAF VVNB 210500Z 2106/2206 05007KT 9999 FEW020 TEMPO 2108/2114 3500 TSRA BKN012 FEW027CB TEMPO 2118/2124 3500 TSRA BKN012 FEW027CB